sensor_id;sensor_type;location;lat;lon;timestamp;P1;durP1;ratioP1;P2;durP2;ratioP2
25299;SDS011;13241;51.208;4.432;2022-08-01T00:00:06;4.75;;;2.67;;
25299;SDS011;13241;51.208;4.432;2022-08-01T00:02:36;7.45;;;2.72;;
25299;SDS011;13241;51.208;4.432;2022-08-01T00:05:04;6.15;;;2.78;;
25299;SDS011;13241;51.208;4.432;2022-08-01T00:07:32;8.10;;;2.85;;
25299;SDS011;13241;51.208;4.432;2022-08-01T00:10:00;8.80;;;3.17;;
25299;SDS011;13241;51.208;4.432;2022-08-01T00:12:29;5.10;;;3.30;;
25299;SDS011;13241;51.208;4.432;2022-08-01T00:14:56;8.13;;;2.97;;
25299;SDS011;13241;51.208;4.432;2022-08-01T00:17:23;5.07;;;2.58;;
25299;SDS011;13241;51.208;4.432;2022-08-01T00:19:50;7.95;;;2.88;;
25299;SDS011;13241;51.208;4.432;2022-08-01T00:22:16;5.00;;;3.15;;
25299;SDS011;13241;51.208;4.432;2022-08-01T00:24:43;6.75;;;2.83;;
25299;SDS011;13241;51.208;4.432;2022-08-01T00:27:10;10.45;;;3.15;;
25299;SDS011;13241;51.208;4.432;2022-08-01T00:29:37;5.95;;;2.85;;
25299;SDS011;13241;51.208;4.432;2022-08-01T00:32:24;6.68;;;2.88;;
25299;SDS011;13241;51.208;4.432;2022-08-01T00:34:51;9.02;;;3.33;;
25299;SDS011;13241;51.208;4.432;2022-08-01T00:37:18;8.10;;;3.05;;
25299;SDS011;13241;51.208;4.432;2022-08-01T00:39:45;8.43;;;3.75;;
25299;SDS011;13241;51.208;4.432;2022-08-01T00:42:12;5.57;;;3.13;;
25299;SDS011;13241;51.208;4.432;2022-08-01T00:44:39;10.23;;;3.88;;
25299;SDS011;13241;51.208;4.432;2022-08-01T00:47:06;8.32;;;4.28;;
25299;SDS011;13241;51.208;4.432;2022-08-01T00:49:33;17.48;;;4.50;;
25299;SDS011;13241;51.208;4.432;2022-08-01T00:52:02;9.00;;;4.28;;
25299;SDS011;13241;51.208;4.432;2022-08-01T00:54:31;8.48;;;4.65;;
25299;SDS011;13241;51.208;4.432;2022-08-01T00:56:58;12.27;;;5.18;;
25299;SDS011;13241;51.208;4.432;2022-08-01T00:59:26;12.27;;;5.18;;
25299;SDS011;13241;51.208;4.432;2022-08-01T01:01:53;11.18;;;5.13;;
25299;SDS011;13241;51.208;4.432;2022-08-01T01:04:21;13.88;;;5.03;;
25299;SDS011;13241;51.208;4.432;2022-08-01T01:15:23;12.23;;;5.55;;
25299;SDS011;13241;51.208;4.432;2022-08-01T01:18:54;13.13;;;5.25;;
25299;SDS011;13241;51.208;4.432;2022-08-01T01:23:54;16.92;;;7.65;;
25299;SDS011;13241;51.208;4.432;2022-08-01T01:29:29;23.90;;;8.35;;
25299;SDS011;13241;51.208;4.432;2022-08-01T01:32:40;24.88;;;8.38;;
25299;SDS011;13241;51.208;4.432;2022-08-01T01:35:12;24.50;;;7.70;;
25299;SDS011;13241;51.208;4.432;2022-08-01T01:37:46;14.65;;;6.90;;
25299;SDS011;13241;51.208;4.432;2022-08-01T01:40:16;14.60;;;7.28;;
25299;SDS011;13241;51.208;4.432;2022-08-01T01:42:44;20.35;;;8.25;;
25299;SDS011;13241;51.208;4.432;2022-08-01T01:45:12;13.45;;;8.20;;
25299;SDS011;13241;51.208;4.432;2022-08-01T01:47:41;18.58;;;7.68;;
25299;SDS011;13241;51.208;4.432;2022-08-01T01:50:09;19.75;;;8.30;;
25299;SDS011;13241;51.208;4.432;2022-08-01T01:52:38;20.52;;;8.10;;
25299;SDS011;13241;51.208;4.432;2022-08-01T01:55:07;18.17;;;7.72;;
25299;SDS011;13241;51.208;4.432;2022-08-01T01:57:36;17.27;;;7.28;;
25299;SDS011;13241;51.208;4.432;2022-08-01T02:00:07;25.65;;;6.80;;
25299;SDS011;13241;51.208;4.432;2022-08-01T02:02:36;13.85;;;6.53;;
25299;SDS011;13241;51.208;4.432;2022-08-01T02:05:05;18.33;;;7.13;;
25299;SDS011;13241;51.208;4.432;2022-08-01T02:07:34;14.55;;;6.88;;
25299;SDS011;13241;51.208;4.432;2022-08-01T02:10:03;10.45;;;5.82;;
25299;SDS011;13241;51.208;4.432;2022-08-01T02:12:35;15.52;;;6.40;;
25299;SDS011;13241;51.208;4.432;2022-08-01T02:15:04;11.15;;;5.75;;
25299;SDS011;13241;51.208;4.432;2022-08-01T02:17:32;11.30;;;5.40;;
25299;SDS011;13241;51.208;4.432;2022-08-01T02:20:08;11.40;;;4.65;;
25299;SDS011;13241;51.208;4.432;2022-08-01T02:22:57;9.68;;;4.75;;
25299;SDS011;13241;51.208;4.432;2022-08-01T02:25:27;7.85;;;3.83;;
25299;SDS011;13241;51.208;4.432;2022-08-01T02:28:04;10.27;;;4.10;;
25299;SDS011;13241;51.208;4.432;2022-08-01T02:30:35;8.77;;;3.92;;
25299;SDS011;13241;51.208;4.432;2022-08-01T02:33:18;11.70;;;3.75;;
25299;SDS011;13241;51.208;4.432;2022-08-01T02:35:49;9.07;;;4.05;;
25299;SDS011;13241;51.208;4.432;2022-08-01T02:38:40;12.55;;;3.75;;
25299;SDS011;13241;51.208;4.432;2022-08-01T02:41:12;7.70;;;4.07;;
25299;SDS011;13241;51.208;4.432;2022-08-01T02:43:47;8.10;;;3.35;;
25299;SDS011;13241;51.208;4.432;2022-08-01T02:46:23;6.60;;;2.87;;
25299;SDS011;13241;51.208;4.432;2022-08-01T02:49:01;5.55;;;3.20;;
25299;SDS011;13241;51.208;4.432;2022-08-01T02:51:30;8.15;;;3.10;;
25299;SDS011;13241;51.208;4.432;2022-08-01T02:53:58;7.95;;;2.97;;
25299;SDS011;13241;51.208;4.432;2022-08-01T02:56:26;5.47;;;2.50;;
25299;SDS011;13241;51.208;4.432;2022-08-01T02:59:02;4.72;;;2.67;;
25299;SDS011;13241;51.208;4.432;2022-08-01T03:01:35;7.63;;;2.95;;
25299;SDS011;13241;51.208;4.432;2022-08-01T03:04:06;7.38;;;3.03;;
25299;SDS011;13241;51.208;4.432;2022-08-01T03:06:33;4.70;;;2.70;;
25299;SDS011;13241;51.208;4.432;2022-08-01T03:09:02;6.93;;;2.75;;
25299;SDS011;13241;51.208;4.432;2022-08-01T03:11:31;9.43;;;3.40;;
25299;SDS011;13241;51.208;4.432;2022-08-01T03:13:59;7.43;;;2.97;;
25299;SDS011;13241;51.208;4.432;2022-08-01T03:16:31;3.35;;;2.40;;
25299;SDS011;13241;51.208;4.432;2022-08-01T03:19:01;5.57;;;2.88;;
25299;SDS011;13241;51.208;4.432;2022-08-01T03:21:30;6.75;;;2.63;;
25299;SDS011;13241;51.208;4.432;2022-08-01T03:23:59;6.22;;;2.78;;
25299;SDS011;13241;51.208;4.432;2022-08-01T03:26:30;4.07;;;2.15;;
25299;SDS011;13241;51.208;4.432;2022-08-01T03:29:02;5.72;;;2.15;;
25299;SDS011;13241;51.208;4.432;2022-08-01T03:31:34;3.38;;;1.70;;
25299;SDS011;13241;51.208;4.432;2022-08-01T03:34:02;4.57;;;1.85;;
25299;SDS011;13241;51.208;4.432;2022-08-01T03:36:31;4.25;;;1.90;;
25299;SDS011;13241;51.208;4.432;2022-08-01T03:39:02;2.63;;;1.63;;
25299;SDS011;13241;51.208;4.432;2022-08-01T03:41:36;4.53;;;1.17;;
25299;SDS011;13241;51.208;4.432;2022-08-01T03:44:16;3.45;;;1.55;;
25299;SDS011;13241;51.208;4.432;2022-08-01T03:46:47;2.10;;;1.52;;
25299;SDS011;13241;51.208;4.432;2022-08-01T03:49:35;2.88;;;1.65;;
25299;SDS011;13241;51.208;4.432;2022-08-01T03:52:08;3.50;;;1.65;;
25299;SDS011;13241;51.208;4.432;2022-08-01T03:54:36;2.83;;;1.30;;
25299;SDS011;13241;51.208;4.432;2022-08-01T03:57:06;8.27;;;1.50;;
25299;SDS011;13241;51.208;4.432;2022-08-01T03:59:56;2.63;;;1.33;;
25299;SDS011;13241;51.208;4.432;2022-08-01T04:02:25;5.45;;;1.90;;
25299;SDS011;13241;51.208;4.432;2022-08-01T04:04:53;2.13;;;1.20;;
25299;SDS011;13241;51.208;4.432;2022-08-01T04:07:21;3.50;;;1.73;;
25299;SDS011;13241;51.208;4.432;2022-08-01T04:09:52;4.28;;;1.50;;
25299;SDS011;13241;51.208;4.432;2022-08-01T04:12:20;2.80;;;1.60;;
25299;SDS011;13241;51.208;4.432;2022-08-01T04:14:47;4.47;;;1.55;;
25299;SDS011;13241;51.208;4.432;2022-08-01T04:17:17;4.60;;;1.67;;
25299;SDS011;13241;51.208;4.432;2022-08-01T04:19:44;3.15;;;1.55;;
25299;SDS011;13241;51.208;4.432;2022-08-01T04:22:12;3.75;;;1.40;;
25299;SDS011;13241;51.208;4.432;2022-08-01T04:24:42;4.53;;;1.45;;
25299;SDS011;13241;51.208;4.432;2022-08-01T04:27:23;2.97;;;1.60;;
25299;SDS011;13241;51.208;4.432;2022-08-01T04:30:15;4.28;;;2.05;;
25299;SDS011;13241;51.208;4.432;2022-08-01T04:32:47;5.10;;;1.85;;
25299;SDS011;13241;51.208;4.432;2022-08-01T04:35:16;3.97;;;2.20;;
25299;SDS011;13241;51.208;4.432;2022-08-01T04:38:06;3.22;;;2.00;;
25299;SDS011;13241;51.208;4.432;2022-08-01T04:40:35;11.50;;;1.88;;
25299;SDS011;13241;51.208;4.432;2022-08-01T04:43:02;3.50;;;1.70;;
25299;SDS011;13241;51.208;4.432;2022-08-01T04:45:31;4.30;;;2.00;;
25299;SDS011;13241;51.208;4.432;2022-08-01T04:47:59;2.85;;;1.83;;
25299;SDS011;13241;51.208;4.432;2022-08-01T04:50:26;3.13;;;1.92;;
25299;SDS011;13241;51.208;4.432;2022-08-01T04:52:53;4.63;;;2.10;;
25299;SDS011;13241;51.208;4.432;2022-08-01T04:55:20;4.03;;;1.83;;
25299;SDS011;13241;51.208;4.432;2022-08-01T04:57:47;5.32;;;2.10;;
25299;SDS011;13241;51.208;4.432;2022-08-01T05:00:14;5.10;;;1.98;;
25299;SDS011;13241;51.208;4.432;2022-08-01T05:02:44;2.28;;;1.60;;
25299;SDS011;13241;51.208;4.432;2022-08-01T05:05:12;5.88;;;1.95;;
25299;SDS011;13241;51.208;4.432;2022-08-01T05:07:39;3.90;;;2.10;;
25299;SDS011;13241;51.208;4.432;2022-08-01T05:10:11;3.30;;;1.40;;
25299;SDS011;13241;51.208;4.432;2022-08-01T05:12:38;5.57;;;1.55;;
25299;SDS011;13241;51.208;4.432;2022-08-01T05:15:05;3.70;;;1.20;;
25299;SDS011;13241;51.208;4.432;2022-08-01T05:17:39;2.22;;;1.23;;
25299;SDS011;13241;51.208;4.432;2022-08-01T05:20:08;0.85;;;0.80;;
25299;SDS011;13241;51.208;4.432;2022-08-01T05:22:36;7.53;;;1.50;;
25299;SDS011;13241;51.208;4.432;2022-08-01T05:25:04;4.65;;;1.58;;
25299;SDS011;13241;51.208;4.432;2022-08-01T05:27:32;2.20;;;1.30;;
25299;SDS011;13241;51.208;4.432;2022-08-01T05:30:04;5.18;;;1.63;;
25299;SDS011;13241;51.208;4.432;2022-08-01T05:32:33;7.25;;;1.33;;
25299;SDS011;13241;51.208;4.432;2022-08-01T05:35:00;1.92;;;1.38;;
25299;SDS011;13241;51.208;4.432;2022-08-01T05:37:27;4.57;;;1.30;;
25299;SDS011;13241;51.208;4.432;2022-08-01T05:39:54;2.60;;;1.25;;
25299;SDS011;13241;51.208;4.432;2022-08-01T05:42:21;3.17;;;1.75;;
25299;SDS011;13241;51.208;4.432;2022-08-01T05:44:48;5.60;;;1.63;;
25299;SDS011;13241;51.208;4.432;2022-08-01T05:47:16;4.80;;;1.65;;
25299;SDS011;13241;51.208;4.432;2022-08-01T05:49:44;4.88;;;1.48;;
25299;SDS011;13241;51.208;4.432;2022-08-01T05:52:11;3.45;;;1.40;;
25299;SDS011;13241;51.208;4.432;2022-08-01T05:54:38;3.85;;;1.40;;
25299;SDS011;13241;51.208;4.432;2022-08-01T05:57:06;6.30;;;1.52;;
25299;SDS011;13241;51.208;4.432;2022-08-01T05:59:33;3.10;;;1.00;;
25299;SDS011;13241;51.208;4.432;2022-08-01T06:02:00;1.08;;;0.73;;
25299;SDS011;13241;51.208;4.432;2022-08-01T06:04:27;5.65;;;1.40;;
25299;SDS011;13241;51.208;4.432;2022-08-01T06:06:54;5.22;;;1.45;;
25299;SDS011;13241;51.208;4.432;2022-08-01T06:09:21;1.83;;;0.60;;
25299;SDS011;13241;51.208;4.432;2022-08-01T06:11:48;3.00;;;1.23;;
25299;SDS011;13241;51.208;4.432;2022-08-01T06:14:15;2.67;;;0.75;;
25299;SDS011;13241;51.208;4.432;2022-08-01T06:16:42;0.93;;;0.50;;
25299;SDS011;13241;51.208;4.432;2022-08-01T06:19:09;2.67;;;1.00;;
25299;SDS011;13241;51.208;4.432;2022-08-01T06:21:35;0.60;;;0.60;;
25299;SDS011;13241;51.208;4.432;2022-08-01T06:24:02;3.22;;;0.80;;
25299;SDS011;13241;51.208;4.432;2022-08-01T06:26:29;0.60;;;0.60;;
25299;SDS011;13241;51.208;4.432;2022-08-01T06:28:57;2.35;;;1.00;;
25299;SDS011;13241;51.208;4.432;2022-08-01T06:31:24;8.57;;;0.93;;
25299;SDS011;13241;51.208;4.432;2022-08-01T06:33:57;3.20;;;0.83;;
25299;SDS011;13241;51.208;4.432;2022-08-01T06:36:23;2.60;;;0.85;;
25299;SDS011;13241;51.208;4.432;2022-08-01T06:38:51;2.45;;;1.02;;
25299;SDS011;13241;51.208;4.432;2022-08-01T06:41:18;5.20;;;0.70;;
25299;SDS011;13241;51.208;4.432;2022-08-01T06:43:45;3.20;;;0.60;;
25299;SDS011;13241;51.208;4.432;2022-08-01T06:46:12;4.22;;;0.80;;
25299;SDS011;13241;51.208;4.432;2022-08-01T06:48:39;3.72;;;0.70;;
25299;SDS011;13241;51.208;4.432;2022-08-01T06:51:06;1.13;;;0.50;;
25299;SDS011;13241;51.208;4.432;2022-08-01T06:53:40;1.58;;;0.68;;
25299;SDS011;13241;51.208;4.432;2022-08-01T06:56:09;3.03;;;0.50;;
25299;SDS011;13241;51.208;4.432;2022-08-01T06:58:36;1.15;;;0.47;;
25299;SDS011;13241;51.208;4.432;2022-08-01T07:01:03;1.25;;;0.32;;
25299;SDS011;13241;51.208;4.432;2022-08-01T07:03:34;2.15;;;0.50;;
25299;SDS011;13241;51.208;4.432;2022-08-01T07:06:23;3.00;;;0.45;;
25299;SDS011;13241;51.208;4.432;2022-08-01T07:08:50;6.22;;;0.73;;
25299;SDS011;13241;51.208;4.432;2022-08-01T07:11:21;0.30;;;0.30;;
25299;SDS011;13241;51.208;4.432;2022-08-01T07:13:50;0.73;;;0.40;;
25299;SDS011;13241;51.208;4.432;2022-08-01T07:16:17;2.63;;;0.40;;
25299;SDS011;13241;51.208;4.432;2022-08-01T07:18:44;0.95;;;0.63;;
25299;SDS011;13241;51.208;4.432;2022-08-01T07:21:11;1.45;;;0.63;;
25299;SDS011;13241;51.208;4.432;2022-08-01T07:26:38;1.65;;;1.05;;
25299;SDS011;13241;51.208;4.432;2022-08-01T07:29:18;2.28;;;1.08;;
25299;SDS011;13241;51.208;4.432;2022-08-01T07:31:44;3.65;;;1.15;;
25299;SDS011;13241;51.208;4.432;2022-08-01T07:34:11;1.55;;;1.00;;
25299;SDS011;13241;51.208;4.432;2022-08-01T07:36:38;2.38;;;1.45;;
25299;SDS011;13241;51.208;4.432;2022-08-01T07:39:05;6.78;;;1.10;;
25299;SDS011;13241;51.208;4.432;2022-08-01T07:41:32;7.47;;;1.30;;
25299;SDS011;13241;51.208;4.432;2022-08-01T07:44:19;3.65;;;0.80;;
25299;SDS011;13241;51.208;4.432;2022-08-01T07:46:47;3.05;;;0.40;;
25299;SDS011;13241;51.208;4.432;2022-08-01T07:49:14;0.98;;;0.88;;
25299;SDS011;13241;51.208;4.432;2022-08-01T07:51:41;2.65;;;0.90;;
25299;SDS011;13241;51.208;4.432;2022-08-01T07:54:28;3.13;;;1.00;;
25299;SDS011;13241;51.208;4.432;2022-08-01T07:56:59;0.60;;;0.50;;
25299;SDS011;13241;51.208;4.432;2022-08-01T07:59:26;1.50;;;0.55;;
25299;SDS011;13241;51.208;4.432;2022-08-01T08:01:53;0.63;;;0.60;;
25299;SDS011;13241;51.208;4.432;2022-08-01T08:04:20;2.75;;;0.80;;
25299;SDS011;13241;51.208;4.432;2022-08-01T08:06:48;0.70;;;0.60;;
25299;SDS011;13241;51.208;4.432;2022-08-01T08:09:15;0.88;;;0.68;;
25299;SDS011;13241;51.208;4.432;2022-08-01T08:11:45;2.90;;;0.70;;
25299;SDS011;13241;51.208;4.432;2022-08-01T08:14:14;2.33;;;1.13;;
25299;SDS011;13241;51.208;4.432;2022-08-01T08:16:41;2.05;;;0.82;;
25299;SDS011;13241;51.208;4.432;2022-08-01T08:19:09;3.45;;;0.80;;
25299;SDS011;13241;51.208;4.432;2022-08-01T08:21:37;5.07;;;0.85;;
25299;SDS011;13241;51.208;4.432;2022-08-01T08:24:04;1.45;;;0.75;;
25299;SDS011;13241;51.208;4.432;2022-08-01T08:26:58;1.67;;;0.85;;
25299;SDS011;13241;51.208;4.432;2022-08-01T08:29:27;3.90;;;0.70;;
25299;SDS011;13241;51.208;4.432;2022-08-01T08:31:57;0.70;;;0.60;;
25299;SDS011;13241;51.208;4.432;2022-08-01T08:34:25;6.50;;;1.02;;
25299;SDS011;13241;51.208;4.432;2022-08-01T08:36:53;3.72;;;1.45;;
25299;SDS011;13241;51.208;4.432;2022-08-01T08:39:22;3.00;;;1.10;;
25299;SDS011;13241;51.208;4.432;2022-08-01T08:41:49;1.88;;;1.10;;
25299;SDS011;13241;51.208;4.432;2022-08-01T08:44:17;4.10;;;1.40;;
25299;SDS011;13241;51.208;4.432;2022-08-01T08:46:46;2.20;;;1.10;;
25299;SDS011;13241;51.208;4.432;2022-08-01T08:49:22;2.88;;;1.13;;
25299;SDS011;13241;51.208;4.432;2022-08-01T08:51:52;5.07;;;1.30;;
25299;SDS011;13241;51.208;4.432;2022-08-01T08:54:21;2.97;;;0.90;;
25299;SDS011;13241;51.208;4.432;2022-08-01T08:56:57;3.95;;;1.08;;
25299;SDS011;13241;51.208;4.432;2022-08-01T08:59:25;3.80;;;1.25;;
25299;SDS011;13241;51.208;4.432;2022-08-01T09:01:54;1.75;;;0.90;;
25299;SDS011;13241;51.208;4.432;2022-08-01T09:04:22;1.55;;;0.90;;
25299;SDS011;13241;51.208;4.432;2022-08-01T09:06:51;4.63;;;1.20;;
25299;SDS011;13241;51.208;4.432;2022-08-01T09:09:19;7.15;;;1.30;;
25299;SDS011;13241;51.208;4.432;2022-08-01T09:11:46;3.60;;;1.67;;
25299;SDS011;13241;51.208;4.432;2022-08-01T09:14:24;2.45;;;1.10;;
25299;SDS011;13241;51.208;4.432;2022-08-01T09:17:03;3.25;;;0.82;;
25299;SDS011;13241;51.208;4.432;2022-08-01T09:19:37;6.25;;;1.45;;
25299;SDS011;13241;51.208;4.432;2022-08-01T09:22:10;2.25;;;0.90;;
25299;SDS011;13241;51.208;4.432;2022-08-01T09:24:39;3.20;;;1.00;;
25299;SDS011;13241;51.208;4.432;2022-08-01T09:27:17;2.17;;;1.00;;
25299;SDS011;13241;51.208;4.432;2022-08-01T09:29:47;12.30;;;1.40;;
25299;SDS011;13241;51.208;4.432;2022-08-01T09:32:28;4.60;;;1.25;;
25299;SDS011;13241;51.208;4.432;2022-08-01T09:38:19;1.15;;;0.95;;
25299;SDS011;13241;51.208;4.432;2022-08-01T09:40:49;3.10;;;1.25;;
25299;SDS011;13241;51.208;4.432;2022-08-01T09:43:17;2.25;;;1.00;;
25299;SDS011;13241;51.208;4.432;2022-08-01T09:45:45;3.15;;;1.45;;
25299;SDS011;13241;51.208;4.432;2022-08-01T09:48:16;4.93;;;1.55;;
25299;SDS011;13241;51.208;4.432;2022-08-01T09:50:48;2.05;;;0.93;;
25299;SDS011;13241;51.208;4.432;2022-08-01T09:53:18;5.22;;;1.98;;
25299;SDS011;13241;51.208;4.432;2022-08-01T09:56:07;3.30;;;1.08;;
25299;SDS011;13241;51.208;4.432;2022-08-01T09:58:57;3.30;;;0.93;;
25299;SDS011;13241;51.208;4.432;2022-08-01T10:01:41;3.25;;;1.40;;
25299;SDS011;13241;51.208;4.432;2022-08-01T10:04:11;3.60;;;1.48;;
25299;SDS011;13241;51.208;4.432;2022-08-01T10:06:44;2.90;;;0.75;;
25299;SDS011;13241;51.208;4.432;2022-08-01T10:09:16;2.05;;;0.90;;
25299;SDS011;13241;51.208;4.432;2022-08-01T10:12:06;3.72;;;1.13;;
25299;SDS011;13241;51.208;4.432;2022-08-01T10:14:42;4.15;;;1.30;;
25299;SDS011;13241;51.208;4.432;2022-08-01T10:17:13;7.65;;;1.42;;
25299;SDS011;13241;51.208;4.432;2022-08-01T10:19:45;7.32;;;1.00;;
25299;SDS011;13241;51.208;4.432;2022-08-01T10:22:13;1.38;;;1.00;;
25299;SDS011;13241;51.208;4.432;2022-08-01T10:24:44;1.50;;;0.88;;
25299;SDS011;13241;51.208;4.432;2022-08-01T10:27:14;1.90;;;1.20;;
25299;SDS011;13241;51.208;4.432;2022-08-01T10:30:03;3.72;;;1.20;;
25299;SDS011;13241;51.208;4.432;2022-08-01T10:35:16;2.50;;;1.33;;
25299;SDS011;13241;51.208;4.432;2022-08-01T10:38:04;2.70;;;1.48;;
25299;SDS011;13241;51.208;4.432;2022-08-01T10:40:36;3.08;;;1.38;;
25299;SDS011;13241;51.208;4.432;2022-08-01T10:43:05;4.13;;;1.33;;
25299;SDS011;13241;51.208;4.432;2022-08-01T10:45:32;3.10;;;1.17;;
25299;SDS011;13241;51.208;4.432;2022-08-01T10:48:09;2.83;;;1.98;;
25299;SDS011;13241;51.208;4.432;2022-08-01T10:50:49;2.22;;;1.52;;
25299;SDS011;13241;51.208;4.432;2022-08-01T10:53:20;2.38;;;1.20;;
25299;SDS011;13241;51.208;4.432;2022-08-01T10:58:32;1.52;;;1.10;;
25299;SDS011;13241;51.208;4.432;2022-08-01T11:09:00;3.20;;;1.20;;
25299;SDS011;13241;51.208;4.432;2022-08-01T11:11:31;3.95;;;1.60;;
25299;SDS011;13241;51.208;4.432;2022-08-01T11:14:03;2.75;;;1.60;;
25299;SDS011;13241;51.208;4.432;2022-08-01T11:16:36;2.92;;;1.23;;
25299;SDS011;13241;51.208;4.432;2022-08-01T11:19:06;5.38;;;1.27;;
25299;SDS011;13241;51.208;4.432;2022-08-01T11:27:18;1.73;;;1.23;;
25299;SDS011;13241;51.208;4.432;2022-08-01T11:35:35;5.40;;;2.22;;
25299;SDS011;13241;51.208;4.432;2022-08-01T11:43:35;5.50;;;2.05;;
25299;SDS011;13241;51.208;4.432;2022-08-01T11:46:44;6.07;;;2.13;;
25299;SDS011;13241;51.208;4.432;2022-08-01T11:52:05;6.15;;;1.40;;
25299;SDS011;13241;51.208;4.432;2022-08-01T11:57:05;4.18;;;1.45;;
25299;SDS011;13241;51.208;4.432;2022-08-01T12:02:37;6.40;;;2.03;;
25299;SDS011;13241;51.208;4.432;2022-08-01T12:07:37;6.13;;;1.60;;
25299;SDS011;13241;51.208;4.432;2022-08-01T12:10:08;4.20;;;1.50;;
25299;SDS011;13241;51.208;4.432;2022-08-01T12:12:46;2.13;;;1.30;;
25299;SDS011;13241;51.208;4.432;2022-08-01T12:15:14;3.45;;;1.30;;
25299;SDS011;13241;51.208;4.432;2022-08-01T12:20:25;4.80;;;1.35;;
25299;SDS011;13241;51.208;4.432;2022-08-01T12:22:58;4.80;;;1.40;;
25299;SDS011;13241;51.208;4.432;2022-08-01T12:25:26;8.15;;;0.80;;
25299;SDS011;13241;51.208;4.432;2022-08-01T12:27:54;1.75;;;0.93;;
25299;SDS011;13241;51.208;4.432;2022-08-01T12:30:22;1.73;;;1.02;;
25299;SDS011;13241;51.208;4.432;2022-08-01T12:32:53;3.38;;;1.08;;
25299;SDS011;13241;51.208;4.432;2022-08-01T12:35:21;4.80;;;0.85;;
25299;SDS011;13241;51.208;4.432;2022-08-01T12:37:54;1.35;;;0.80;;
25299;SDS011;13241;51.208;4.432;2022-08-01T12:40:26;1.75;;;0.93;;
25299;SDS011;13241;51.208;4.432;2022-08-01T12:42:54;4.88;;;1.17;;
25299;SDS011;13241;51.208;4.432;2022-08-01T12:45:27;2.70;;;0.88;;
25299;SDS011;13241;51.208;4.432;2022-08-01T12:48:01;3.60;;;0.70;;
25299;SDS011;13241;51.208;4.432;2022-08-01T12:50:32;1.17;;;0.65;;
25299;SDS011;13241;51.208;4.432;2022-08-01T12:52:59;2.15;;;1.00;;
25299;SDS011;13241;51.208;4.432;2022-08-01T12:55:28;2.65;;;0.65;;
25299;SDS011;13241;51.208;4.432;2022-08-01T12:58:18;0.90;;;0.70;;
25299;SDS011;13241;51.208;4.432;2022-08-01T13:00:46;1.73;;;0.90;;
25299;SDS011;13241;51.208;4.432;2022-08-01T13:03:15;1.63;;;0.80;;
25299;SDS011;13241;51.208;4.432;2022-08-01T13:08:26;2.78;;;0.70;;
25299;SDS011;13241;51.208;4.432;2022-08-01T13:11:07;1.88;;;1.08;;
25299;SDS011;13241;51.208;4.432;2022-08-01T13:13:51;1.85;;;1.20;;
25299;SDS011;13241;51.208;4.432;2022-08-01T13:16:20;3.05;;;1.10;;
25299;SDS011;13241;51.208;4.432;2022-08-01T13:19:04;2.28;;;1.10;;
25299;SDS011;13241;51.208;4.432;2022-08-01T13:21:31;3.75;;;1.02;;
25299;SDS011;13241;51.208;4.432;2022-08-01T13:24:22;1.10;;;0.60;;
25299;SDS011;13241;51.208;4.432;2022-08-01T13:26:51;2.97;;;0.80;;
25299;SDS011;13241;51.208;4.432;2022-08-01T13:29:29;2.50;;;0.90;;
25299;SDS011;13241;51.208;4.432;2022-08-01T13:31:58;5.68;;;1.17;;
25299;SDS011;13241;51.208;4.432;2022-08-01T13:35:03;2.53;;;0.57;;
25299;SDS011;13241;51.208;4.432;2022-08-01T13:37:31;1.55;;;1.02;;
25299;SDS011;13241;51.208;4.432;2022-08-01T13:39:58;2.80;;;0.88;;
25299;SDS011;13241;51.208;4.432;2022-08-01T13:42:25;11.70;;;1.27;;
25299;SDS011;13241;51.208;4.432;2022-08-01T13:44:52;1.80;;;0.90;;
25299;SDS011;13241;51.208;4.432;2022-08-01T13:47:19;2.58;;;1.20;;
25299;SDS011;13241;51.208;4.432;2022-08-01T13:49:58;6.25;;;1.25;;
25299;SDS011;13241;51.208;4.432;2022-08-01T13:52:28;6.70;;;1.50;;
25299;SDS011;13241;51.208;4.432;2022-08-01T13:54:55;4.63;;;1.77;;
25299;SDS011;13241;51.208;4.432;2022-08-01T13:57:22;5.20;;;1.40;;
25299;SDS011;13241;51.208;4.432;2022-08-01T13:59:49;1.35;;;0.98;;
25299;SDS011;13241;51.208;4.432;2022-08-01T14:02:18;5.97;;;1.00;;
25299;SDS011;13241;51.208;4.432;2022-08-01T14:04:46;2.08;;;0.70;;
25299;SDS011;13241;51.208;4.432;2022-08-01T14:07:13;2.45;;;1.13;;
25299;SDS011;13241;51.208;4.432;2022-08-01T14:09:41;1.35;;;0.85;;
25299;SDS011;13241;51.208;4.432;2022-08-01T14:12:28;1.15;;;0.63;;
25299;SDS011;13241;51.208;4.432;2022-08-01T14:14:55;1.17;;;0.80;;
25299;SDS011;13241;51.208;4.432;2022-08-01T14:17:22;3.17;;;0.82;;
25299;SDS011;13241;51.208;4.432;2022-08-01T14:19:49;0.88;;;0.60;;
25299;SDS011;13241;51.208;4.432;2022-08-01T14:22:16;2.10;;;0.85;;
25299;SDS011;13241;51.208;4.432;2022-08-01T14:24:43;3.38;;;0.80;;
25299;SDS011;13241;51.208;4.432;2022-08-01T14:27:11;5.45;;;0.85;;
25299;SDS011;13241;51.208;4.432;2022-08-01T14:29:38;5.72;;;0.85;;
25299;SDS011;13241;51.208;4.432;2022-08-01T14:32:25;6.20;;;0.95;;
25299;SDS011;13241;51.208;4.432;2022-08-01T14:34:54;1.38;;;0.80;;
25299;SDS011;13241;51.208;4.432;2022-08-01T14:37:22;2.05;;;1.00;;
25299;SDS011;13241;51.208;4.432;2022-08-01T14:42:24;6.15;;;0.73;;
25299;SDS011;13241;51.208;4.432;2022-08-01T14:44:51;1.10;;;0.45;;
25299;SDS011;13241;51.208;4.432;2022-08-01T14:47:18;4.28;;;1.38;;
25299;SDS011;13241;51.208;4.432;2022-08-01T14:49:48;4.43;;;0.98;;
25299;SDS011;13241;51.208;4.432;2022-08-01T14:52:15;5.30;;;1.05;;
25299;SDS011;13241;51.208;4.432;2022-08-01T14:54:43;2.00;;;1.13;;
25299;SDS011;13241;51.208;4.432;2022-08-01T14:57:09;0.93;;;0.68;;
25299;SDS011;13241;51.208;4.432;2022-08-01T14:59:36;0.90;;;0.77;;
25299;SDS011;13241;51.208;4.432;2022-08-01T15:02:03;1.67;;;0.65;;
25299;SDS011;13241;51.208;4.432;2022-08-01T15:04:31;3.20;;;0.75;;
25299;SDS011;13241;51.208;4.432;2022-08-01T15:06:57;2.00;;;0.80;;
25299;SDS011;13241;51.208;4.432;2022-08-01T15:09:24;2.20;;;0.70;;
25299;SDS011;13241;51.208;4.432;2022-08-01T15:11:51;2.58;;;0.85;;
25299;SDS011;13241;51.208;4.432;2022-08-01T15:14:18;2.53;;;0.93;;
25299;SDS011;13241;51.208;4.432;2022-08-01T15:17:03;2.78;;;0.70;;
25299;SDS011;13241;51.208;4.432;2022-08-01T15:19:31;3.92;;;1.23;;
25299;SDS011;13241;51.208;4.432;2022-08-01T15:21:58;1.67;;;0.90;;
25299;SDS011;13241;51.208;4.432;2022-08-01T15:24:27;2.38;;;0.60;;
25299;SDS011;13241;51.208;4.432;2022-08-01T15:26:54;0.98;;;0.65;;
25299;SDS011;13241;51.208;4.432;2022-08-01T15:29:20;4.25;;;1.00;;
25299;SDS011;13241;51.208;4.432;2022-08-01T15:31:47;1.48;;;0.60;;
25299;SDS011;13241;51.208;4.432;2022-08-01T15:34:14;2.65;;;0.80;;
25299;SDS011;13241;51.208;4.432;2022-08-01T15:36:41;1.83;;;0.80;;
25299;SDS011;13241;51.208;4.432;2022-08-01T15:39:14;5.70;;;1.10;;
25299;SDS011;13241;51.208;4.432;2022-08-01T15:41:42;1.75;;;0.68;;
25299;SDS011;13241;51.208;4.432;2022-08-01T15:44:09;1.10;;;0.60;;
25299;SDS011;13241;51.208;4.432;2022-08-01T15:46:36;1.25;;;0.60;;
25299;SDS011;13241;51.208;4.432;2022-08-01T15:49:03;2.08;;;0.70;;
25299;SDS011;13241;51.208;4.432;2022-08-01T15:51:31;0.95;;;0.82;;
25299;SDS011;13241;51.208;4.432;2022-08-01T15:53:58;1.50;;;0.68;;
25299;SDS011;13241;51.208;4.432;2022-08-01T15:56:39;1.15;;;0.70;;
25299;SDS011;13241;51.208;4.432;2022-08-01T15:59:06;4.18;;;0.90;;
25299;SDS011;13241;51.208;4.432;2022-08-01T16:01:33;7.53;;;1.60;;
25299;SDS011;13241;51.208;4.432;2022-08-01T16:04:01;13.60;;;0.93;;
25299;SDS011;13241;51.208;4.432;2022-08-01T16:06:28;10.23;;;1.42;;
25299;SDS011;13241;51.208;4.432;2022-08-01T16:08:55;8.30;;;1.20;;
25299;SDS011;13241;51.208;4.432;2022-08-01T16:11:22;6.75;;;1.23;;
25299;SDS011;13241;51.208;4.432;2022-08-01T16:13:55;1.55;;;0.80;;
25299;SDS011;13241;51.208;4.432;2022-08-01T16:16:23;3.33;;;1.83;;